sensor_id;sensor_type;location;lat;lon;timestamp;pressure;altitude;pressure_sealevel;temperature
50206;BMP280;36098;48.390;10.856;2022-11-15T00:00:33;95960.00;;;21.46
50206;BMP280;36098;48.390;10.856;2022-11-15T00:02:58;95963.97;;;21.44
50206;BMP280;36098;48.390;10.856;2022-11-15T00:05:24;95947.69;;;21.42
50206;BMP280;36098;48.390;10.856;2022-11-15T00:07:49;95954.22;;;21.39
50206;BMP280;36098;48.390;10.856;2022-11-15T00:10:15;95952.94;;;21.42
50206;BMP280;36098;48.390;10.856;2022-11-15T00:12:40;95952.66;;;21.38
50206;BMP280;36098;48.390;10.856;2022-11-15T00:15:06;95942.16;;;21.38
50206;BMP280;36098;48.390;10.856;2022-11-15T00:17:31;95941.63;;;21.37
50206;BMP280;36098;48.390;10.856;2022-11-15T00:19:57;95949.22;;;21.38
50206;BMP280;36098;48.390;10.856;2022-11-15T00:22:22;95946.59;;;21.38
50206;BMP280;36098;48.390;10.856;2022-11-15T00:24:48;95940.59;;;21.38
50206;BMP280;36098;48.390;10.856;2022-11-15T00:27:13;95935.84;;;21.35
50206;BMP280;36098;48.390;10.856;2022-11-15T00:29:38;95931.91;;;21.32
50206;BMP280;36098;48.390;10.856;2022-11-15T00:32:09;95933.47;;;21.33
50206;BMP280;36098;48.390;10.856;2022-11-15T00:34:34;95936.38;;;21.32
50206;BMP280;36098;48.390;10.856;2022-11-15T00:36:59;95939.25;;;21.30
50206;BMP280;36098;48.390;10.856;2022-11-15T00:39:24;95928.50;;;21.32
50206;BMP280;36098;48.390;10.856;2022-11-15T00:41:50;95931.38;;;21.30
50206;BMP280;36098;48.390;10.856;2022-11-15T00:44:15;95935.81;;;21.30
50206;BMP280;36098;48.390;10.856;2022-11-15T00:46:40;95928.75;;;21.25
50206;BMP280;36098;48.390;10.856;2022-11-15T00:49:05;95930.03;;;21.28
50206;BMP280;36098;48.390;10.856;2022-11-15T00:51:31;95936.34;;;21.27
50206;BMP280;36098;48.390;10.856;2022-11-15T00:53:56;95931.09;;;21.27
50206;BMP280;36098;48.390;10.856;2022-11-15T00:56:21;95936.63;;;21.25
50206;BMP280;36098;48.390;10.856;2022-11-15T00:58:46;95932.66;;;21.23
50206;BMP280;36098;48.390;10.856;2022-11-15T01:01:13;95925.06;;;21.21
50206;BMP280;36098;48.390;10.856;2022-11-15T01:03:40;95929.28;;;21.22
50206;BMP280;36098;48.390;10.856;2022-11-15T01:06:06;95923.47;;;21.20
50206;BMP280;36098;48.390;10.856;2022-11-15T01:08:32;95923.47;;;21.20
50206;BMP280;36098;48.390;10.856;2022-11-15T01:11:06;95928.72;;;21.20
50206;BMP280;36098;48.390;10.856;2022-11-15T01:13:33;95927.94;;;21.20
50206;BMP280;36098;48.390;10.856;2022-11-15T01:16:06;95933.19;;;21.20
50206;BMP280;36098;48.390;10.856;2022-11-15T01:18:31;95924.00;;;21.17
50206;BMP280;36098;48.390;10.856;2022-11-15T01:20:56;95922.41;;;21.16
50206;BMP280;36098;48.390;10.856;2022-11-15T01:23:22;95926.63;;;21.12
50206;BMP280;36098;48.390;10.856;2022-11-15T01:25:47;95930.81;;;21.13
50206;BMP280;36098;48.390;10.856;2022-11-15T01:28:12;95938.16;;;21.16
50206;BMP280;36098;48.390;10.856;2022-11-15T01:30:38;95936.88;;;21.14
50206;BMP280;36098;48.390;10.856;2022-11-15T01:33:03;95937.63;;;21.14
50206;BMP280;36098;48.390;10.856;2022-11-15T01:35:28;95929.78;;;21.14
50206;BMP280;36098;48.390;10.856;2022-11-15T01:37:53;95929.25;;;21.12
50206;BMP280;36098;48.390;10.856;2022-11-15T01:40:19;95931.88;;;21.12
50206;BMP280;36098;48.390;10.856;2022-11-15T01:42:44;95918.97;;;21.11
50206;BMP280;36098;48.390;10.856;2022-11-15T01:45:14;95921.59;;;21.11
50206;BMP280;36098;48.390;10.856;2022-11-15T01:47:48;95920.84;;;21.10
50206;BMP280;36098;48.390;10.856;2022-11-15T01:50:16;95915.06;;;21.08
50206;BMP280;36098;48.390;10.856;2022-11-15T01:52:42;95909.28;;;21.06
50206;BMP280;36098;48.390;10.856;2022-11-15T01:55:16;95906.66;;;21.06
50206;BMP280;36098;48.390;10.856;2022-11-15T01:57:45;95905.59;;;21.07
50206;BMP280;36098;48.390;10.856;2022-11-15T02:00:12;95896.94;;;21.07
50206;BMP280;36098;48.390;10.856;2022-11-15T02:02:38;95893.00;;;21.04
50206;BMP280;36098;48.390;10.856;2022-11-15T02:05:04;95896.69;;;21.03
50206;BMP280;36098;48.390;10.856;2022-11-15T02:07:31;95899.56;;;21.02
50206;BMP280;36098;48.390;10.856;2022-11-15T02:10:04;95895.09;;;21.02
50206;BMP280;36098;48.390;10.856;2022-11-15T02:12:31;95888.25;;;21.01
50206;BMP280;36098;48.390;10.856;2022-11-15T02:14:57;95887.47;;;21.01
50206;BMP280;36098;48.390;10.856;2022-11-15T02:17:42;95881.19;;;20.97
50206;BMP280;36098;48.390;10.856;2022-11-15T02:20:36;95890.88;;;20.96
50206;BMP280;36098;48.390;10.856;2022-11-15T02:23:11;95883.53;;;20.98
50206;BMP280;36098;48.390;10.856;2022-11-15T02:36:40;95858.31;;;20.92
50206;BMP280;36098;48.390;10.856;2022-11-15T02:41:54;95852.78;;;20.89
50206;BMP280;36098;48.390;10.856;2022-11-15T02:44:24;95841.53;;;20.88
50206;BMP280;36098;48.390;10.856;2022-11-15T02:46:54;95835.22;;;20.89
50206;BMP280;36098;48.390;10.856;2022-11-15T02:49:46;95838.63;;;20.90
50206;BMP280;36098;48.390;10.856;2022-11-15T02:52:20;95842.56;;;20.87
50206;BMP280;36098;48.390;10.856;2022-11-15T02:57:39;95842.06;;;20.85
50206;BMP280;36098;48.390;10.856;2022-11-15T03:00:10;95839.44;;;20.85
50206;BMP280;36098;48.390;10.856;2022-11-15T03:02:47;95834.19;;;20.85
50206;BMP280;36098;48.390;10.856;2022-11-15T03:16:04;95822.31;;;20.78
50206;BMP280;36098;48.390;10.856;2022-11-15T03:18:37;95828.34;;;20.78
50206;BMP280;36098;48.390;10.856;2022-11-15T03:21:06;95820.47;;;20.78
50206;BMP280;36098;48.390;10.856;2022-11-15T03:23:33;95822.03;;;20.74
50206;BMP280;36098;48.390;10.856;2022-11-15T03:26:00;95820.47;;;20.73
50206;BMP280;36098;48.390;10.856;2022-11-15T03:28:41;95814.16;;;20.74
50206;BMP280;36098;48.390;10.856;2022-11-15T03:31:08;95810.50;;;20.75
50206;BMP280;36098;48.390;10.856;2022-11-15T03:33:55;95818.13;;;20.77
50206;BMP280;36098;48.390;10.856;2022-11-15T03:36:22;95812.06;;;20.76
50206;BMP280;36098;48.390;10.856;2022-11-15T03:38:48;95816.53;;;20.76
50206;BMP280;36098;48.390;10.856;2022-11-15T03:41:43;95815.22;;;20.78
50206;BMP280;36098;48.390;10.856;2022-11-15T03:44:38;95817.06;;;20.73
50206;BMP280;36098;48.390;10.856;2022-11-15T03:47:07;95806.31;;;20.74
50206;BMP280;36098;48.390;10.856;2022-11-15T03:49:34;95812.06;;;20.76
50206;BMP280;36098;48.390;10.856;2022-11-15T03:52:02;95814.16;;;20.74
50206;BMP280;36098;48.390;10.856;2022-11-15T03:54:28;95811.81;;;20.73
50206;BMP280;36098;48.390;10.856;2022-11-15T03:56:54;95809.97;;;20.73
50206;BMP280;36098;48.390;10.856;2022-11-15T03:59:19;95802.88;;;20.69
50206;BMP280;36098;48.390;10.856;2022-11-15T04:01:45;95803.91;;;20.68
50206;BMP280;36098;48.390;10.856;2022-11-15T04:04:10;95802.34;;;20.67
50206;BMP280;36098;48.390;10.856;2022-11-15T04:06:35;95800.53;;;20.67
50206;BMP280;36098;48.390;10.856;2022-11-15T04:09:00;95802.09;;;20.68
50206;BMP280;36098;48.390;10.856;2022-11-15T04:11:26;95800.53;;;20.67
50206;BMP280;36098;48.390;10.856;2022-11-15T04:13:51;95801.56;;;20.66
50206;BMP280;36098;48.390;10.856;2022-11-15T04:16:16;95800.78;;;20.66
50206;BMP280;36098;48.390;10.856;2022-11-15T04:18:42;95792.91;;;20.66
50206;BMP280;36098;48.390;10.856;2022-11-15T04:21:07;95790.81;;;20.63
50206;BMP280;36098;48.390;10.856;2022-11-15T04:23:51;95785.03;;;20.61
50206;BMP280;36098;48.390;10.856;2022-11-15T04:26:21;95792.38;;;20.64
50206;BMP280;36098;48.390;10.856;2022-11-15T04:28:47;95790.81;;;20.63
50206;BMP280;36098;48.390;10.856;2022-11-15T04:31:31;95787.66;;;20.61
50206;BMP280;36098;48.390;10.856;2022-11-15T04:33:57;95783.97;;;20.57
50206;BMP280;36098;48.390;10.856;2022-11-15T04:36:22;95791.84;;;20.57
50206;BMP280;36098;48.390;10.856;2022-11-15T04:39:07;95782.13;;;20.57
50206;BMP280;36098;48.390;10.856;2022-11-15T04:41:32;95778.22;;;20.55
50206;BMP280;36098;48.390;10.856;2022-11-15T04:43:57;95777.69;;;20.53
50206;BMP280;36098;48.390;10.856;2022-11-15T04:46:23;95777.69;;;20.53
50206;BMP280;36098;48.390;10.856;2022-11-15T04:48:49;95770.59;;;20.53
50206;BMP280;36098;48.390;10.856;2022-11-15T04:51:14;95767.72;;;20.55
50206;BMP280;36098;48.390;10.856;2022-11-15T04:53:40;95772.41;;;20.48
50206;BMP280;36098;48.390;10.856;2022-11-15T04:56:05;95766.38;;;20.47
50206;BMP280;36098;48.390;10.856;2022-11-15T04:58:30;95765.84;;;20.45
50206;BMP280;36098;48.390;10.856;2022-11-15T05:00:56;95765.84;;;20.45
50206;BMP280;36098;48.390;10.856;2022-11-15T05:03:21;95760.09;;;20.48
50206;BMP280;36098;48.390;10.856;2022-11-15T05:06:05;95759.03;;;20.49
50206;BMP280;36098;48.390;10.856;2022-11-15T05:08:30;95760.34;;;20.47
50206;BMP280;36098;48.390;10.856;2022-11-15T05:10:56;95766.38;;;20.42
50206;BMP280;36098;48.390;10.856;2022-11-15T05:13:21;95764.53;;;20.43
50206;BMP280;36098;48.390;10.856;2022-11-15T05:15:46;95755.34;;;20.40
50206;BMP280;36098;48.390;10.856;2022-11-15T05:18:12;95754.28;;;20.41
50206;BMP280;36098;48.390;10.856;2022-11-15T05:20:37;95751.13;;;20.39
50206;BMP280;36098;48.390;10.856;2022-11-15T05:23:02;95745.91;;;20.39
50206;BMP280;36098;48.390;10.856;2022-11-15T05:25:28;95744.06;;;20.40
50206;BMP280;36098;48.390;10.856;2022-11-15T05:27:53;95747.22;;;20.37
50206;BMP280;36098;48.390;10.856;2022-11-15T05:30:19;95738.56;;;20.36
50206;BMP280;36098;48.390;10.856;2022-11-15T05:32:44;95752.19;;;20.38
50206;BMP280;36098;48.390;10.856;2022-11-15T05:35:17;95744.59;;;20.37
50206;BMP280;36098;48.390;10.856;2022-11-15T05:37:43;95741.69;;;20.33
50206;BMP280;36098;48.390;10.856;2022-11-15T05:40:09;95744.59;;;20.37
50206;BMP280;36098;48.390;10.856;2022-11-15T05:42:34;95731.72;;;20.35
50206;BMP280;36098;48.390;10.856;2022-11-15T05:45:02;95741.16;;;20.31
50206;BMP280;36098;48.390;10.856;2022-11-15T05:47:29;95736.44;;;20.28
50206;BMP280;36098;48.390;10.856;2022-11-15T05:49:55;95742.75;;;20.32
50206;BMP280;36098;48.390;10.856;2022-11-15T05:52:25;95736.16;;;20.25
50206;BMP280;36098;48.390;10.856;2022-11-15T05:54:50;95738.56;;;20.31
50206;BMP280;36098;48.390;10.856;2022-11-15T05:57:16;95737.97;;;20.19
50206;BMP280;36098;48.390;10.856;2022-11-15T05:59:42;95739.25;;;20.02
50206;BMP280;36098;48.390;10.856;2022-11-15T06:02:09;95733.94;;;19.92
50206;BMP280;36098;48.390;10.856;2022-11-15T06:04:34;95736.13;;;20.05
50206;BMP280;36098;48.390;10.856;2022-11-15T06:07:00;95732.78;;;20.24
50206;BMP280;36098;48.390;10.856;2022-11-15T06:09:25;95728.81;;;20.27
50206;BMP280;36098;48.390;10.856;2022-11-15T06:11:51;95737.16;;;20.09
50206;BMP280;36098;48.390;10.856;2022-11-15T06:14:16;95731.59;;;20.00
50206;BMP280;36098;48.390;10.856;2022-11-15T06:16:41;95729.28;;;20.04
50206;BMP280;36098;48.390;10.856;2022-11-15T06:19:07;95728.53;;;20.08
50206;BMP280;36098;48.390;10.856;2022-11-15T06:21:34;95732.22;;;20.12
50206;BMP280;36098;48.390;10.856;2022-11-15T06:23:59;95743.75;;;20.16
50206;BMP280;36098;48.390;10.856;2022-11-15T06:26:25;95740.38;;;20.26
50206;BMP280;36098;48.390;10.856;2022-11-15T06:28:50;95742.16;;;20.10
50206;BMP280;36098;48.390;10.856;2022-11-15T06:31:15;95741.03;;;19.96
50206;BMP280;36098;48.390;10.856;2022-11-15T06:33:40;95748.97;;;20.06
50206;BMP280;36098;48.390;10.856;2022-11-15T06:36:08;95744.03;;;20.15
50206;BMP280;36098;48.390;10.856;2022-11-15T06:38:34;95752.44;;;20.27
50206;BMP280;36098;48.390;10.856;2022-11-15T06:41:07;95755.31;;;20.30
50206;BMP280;36098;48.390;10.856;2022-11-15T06:43:33;95751.66;;;20.31
50206;BMP280;36098;48.390;10.856;2022-11-15T06:46:02;95748.50;;;20.24
50206;BMP280;36098;48.390;10.856;2022-11-15T06:48:29;95753.75;;;20.29
50206;BMP280;36098;48.390;10.856;2022-11-15T06:50:59;95754.81;;;20.33
50206;BMP280;36098;48.390;10.856;2022-11-15T06:53:25;95754.03;;;20.33
50206;BMP280;36098;48.390;10.856;2022-11-15T06:55:51;95750.59;;;20.27
50206;BMP280;36098;48.390;10.856;2022-11-15T06:58:16;95749.50;;;20.13
50206;BMP280;36098;48.390;10.856;2022-11-15T07:00:42;95744.25;;;20.13
50206;BMP280;36098;48.390;10.856;2022-11-15T07:03:08;95743.78;;;20.26
50206;BMP280;36098;48.390;10.856;2022-11-15T07:05:33;95747.94;;;20.12
50206;BMP280;36098;48.390;10.856;2022-11-15T07:07:59;95747.66;;;20.09
50206;BMP280;36098;48.390;10.856;2022-11-15T07:10:25;95751.13;;;20.24
50206;BMP280;36098;48.390;10.856;2022-11-15T07:12:51;95748.78;;;20.33
50206;BMP280;36098;48.390;10.856;2022-11-15T07:15:18;95743.50;;;20.23
50206;BMP280;36098;48.390;10.856;2022-11-15T07:17:46;95733.06;;;20.33
50206;BMP280;36098;48.390;10.856;2022-11-15T07:20:12;95736.44;;;20.33
50206;BMP280;36098;48.390;10.856;2022-11-15T07:22:41;95735.94;;;20.31
50206;BMP280;36098;48.390;10.856;2022-11-15T07:25:07;95729.63;;;20.37
50206;BMP280;36098;48.390;10.856;2022-11-15T07:27:33;95725.16;;;20.18
50206;BMP280;36098;48.390;10.856;2022-11-15T07:29:58;95720.16;;;20.21
50206;BMP280;36098;48.390;10.856;2022-11-15T07:32:24;95725.91;;;20.13
50206;BMP280;36098;48.390;10.856;2022-11-15T07:34:49;95724.78;;;19.99
50206;BMP280;36098;48.390;10.856;2022-11-15T07:37:14;95719.25;;;19.91
50206;BMP280;36098;48.390;10.856;2022-11-15T07:39:40;95716.91;;;19.89
50206;BMP280;36098;48.390;10.856;2022-11-15T07:42:05;95714.53;;;19.93
50206;BMP280;36098;48.390;10.856;2022-11-15T07:44:49;95723.75;;;20.00
50206;BMP280;36098;48.390;10.856;2022-11-15T07:47:14;95718.81;;;20.09
50206;BMP280;36098;48.390;10.856;2022-11-15T07:49:40;95729.59;;;20.17
50206;BMP280;36098;48.390;10.856;2022-11-15T07:52:05;95716.53;;;20.27
50206;BMP280;36098;48.390;10.856;2022-11-15T07:54:30;95706.56;;;20.39
50206;BMP280;36098;48.390;10.856;2022-11-15T07:56:55;95701.63;;;20.53
50206;BMP280;36098;48.390;10.856;2022-11-15T07:59:21;95705.56;;;20.65
50206;BMP280;36098;48.390;10.856;2022-11-15T08:01:46;95708.69;;;20.77
50206;BMP280;36098;48.390;10.856;2022-11-15T08:04:12;95700.31;;;20.90
50206;BMP280;36098;48.390;10.856;2022-11-15T08:06:37;95697.16;;;21.03
50206;BMP280;36098;48.390;10.856;2022-11-15T08:09:02;95682.94;;;21.14
50206;BMP280;36098;48.390;10.856;2022-11-15T08:11:28;95687.66;;;21.27
50206;BMP280;36098;48.390;10.856;2022-11-15T08:13:53;95681.81;;;21.40
50206;BMP280;36098;48.390;10.856;2022-11-15T08:16:19;95680.25;;;21.49
50206;BMP280;36098;48.390;10.856;2022-11-15T08:18:44;95671.28;;;21.55
50206;BMP280;36098;48.390;10.856;2022-11-15T08:21:10;95662.34;;;21.61
50206;BMP280;36098;48.390;10.856;2022-11-15T08:23:38;95664.19;;;21.65
50206;BMP280;36098;48.390;10.856;2022-11-15T08:26:04;95667.31;;;21.67
50206;BMP280;36098;48.390;10.856;2022-11-15T08:28:30;95670.47;;;21.69
50206;BMP280;36098;48.390;10.856;2022-11-15T08:30:55;95666.00;;;21.70
50206;BMP280;36098;48.390;10.856;2022-11-15T08:33:21;95667.81;;;21.69
50206;BMP280;36098;48.390;10.856;2022-11-15T08:35:46;95665.19;;;21.69
50206;BMP280;36098;48.390;10.856;2022-11-15T08:38:11;95666.81;;;21.70
50206;BMP280;36098;48.390;10.856;2022-11-15T08:40:37;95664.44;;;21.69
50206;BMP280;36098;48.390;10.856;2022-11-15T08:43:03;95655.50;;;21.70
50206;BMP280;36098;48.390;10.856;2022-11-15T08:45:29;95653.63;;;21.75
50206;BMP280;36098;48.390;10.856;2022-11-15T08:47:55;95651.00;;;21.75
50206;BMP280;36098;48.390;10.856;2022-11-15T08:50:21;95647.56;;;21.75
50206;BMP280;36098;48.390;10.856;2022-11-15T08:52:46;95657.06;;;21.71
50206;BMP280;36098;48.390;10.856;2022-11-15T08:55:13;95647.88;;;21.68
50206;BMP280;36098;48.390;10.856;2022-11-15T08:57:38;95651.81;;;21.71
50206;BMP280;36098;48.390;10.856;2022-11-15T09:00:04;95650.72;;;21.77
50206;BMP280;36098;48.390;10.856;2022-11-15T09:02:29;95653.38;;;21.72
50206;BMP280;36098;48.390;10.856;2022-11-15T09:04:55;95647.34;;;21.61
50206;BMP280;36098;48.390;10.856;2022-11-15T09:07:20;95640.56;;;21.55
50206;BMP280;36098;48.390;10.856;2022-11-15T09:09:45;95644.75;;;21.56
50206;BMP280;36098;48.390;10.856;2022-11-15T09:12:10;95638.16;;;21.59
50206;BMP280;36098;48.390;10.856;2022-11-15T09:14:36;95651.28;;;21.59
50206;BMP280;36098;48.390;10.856;2022-11-15T09:17:01;95644.50;;;21.53
50206;BMP280;36098;48.390;10.856;2022-11-15T09:19:27;95650.03;;;21.46
50206;BMP280;36098;48.390;10.856;2022-11-15T09:21:52;95648.47;;;21.40
50206;BMP280;36098;48.390;10.856;2022-11-15T09:24:17;95640.59;;;21.40
50206;BMP280;36098;48.390;10.856;2022-11-15T09:26:43;95646.66;;;21.41
50206;BMP280;36098;48.390;10.856;2022-11-15T09:29:08;95638.50;;;21.42
50206;BMP280;36098;48.390;10.856;2022-11-15T09:31:34;95636.16;;;21.41
50206;BMP280;36098;48.390;10.856;2022-11-15T09:33:59;95634.28;;;21.41
50206;BMP280;36098;48.390;10.856;2022-11-15T09:36:24;95636.16;;;21.41
50206;BMP280;36098;48.390;10.856;2022-11-15T09:38:50;95630.91;;;21.41
50206;BMP280;36098;48.390;10.856;2022-11-15T09:44:00;95624.50;;;21.57
50206;BMP280;36098;48.390;10.856;2022-11-15T09:49:04;95622.69;;;21.57
50206;BMP280;36098;48.390;10.856;2022-11-15T09:51:32;95614.53;;;21.54
50206;BMP280;36098;48.390;10.856;2022-11-15T09:56:36;95604.06;;;21.49
50206;BMP280;36098;48.390;10.856;2022-11-15T09:59:17;95596.94;;;21.49
50206;BMP280;36098;48.390;10.856;2022-11-15T10:04:22;95594.06;;;21.51
50206;BMP280;36098;48.390;10.856;2022-11-15T10:06:58;95590.13;;;21.53
50206;BMP280;36098;48.390;10.856;2022-11-15T10:09:30;95577.00;;;21.53
50206;BMP280;36098;48.390;10.856;2022-11-15T10:11:59;95566.19;;;21.55
50206;BMP280;36098;48.390;10.856;2022-11-15T10:14:26;95565.94;;;21.56
50206;BMP280;36098;48.390;10.856;2022-11-15T10:20:00;95557.75;;;21.68
50206;BMP280;36098;48.390;10.856;2022-11-15T10:22:30;95558.53;;;21.68
50206;BMP280;36098;48.390;10.856;2022-11-15T10:27:33;95551.44;;;21.69
50206;BMP280;36098;48.390;10.856;2022-11-15T10:29:59;95552.97;;;21.75
50206;BMP280;36098;48.390;10.856;2022-11-15T10:32:25;95536.19;;;21.71
50206;BMP280;36098;48.390;10.856;2022-11-15T10:34:50;95531.94;;;21.75
50206;BMP280;36098;48.390;10.856;2022-11-15T10:37:31;95531.41;;;21.78
50206;BMP280;36098;48.390;10.856;2022-11-15T10:40:15;95538.47;;;21.82
50206;BMP280;36098;48.390;10.856;2022-11-15T10:42:41;95533.69;;;21.89
50206;BMP280;36098;48.390;10.856;2022-11-15T10:45:25;95522.25;;;22.09
50206;BMP280;36098;48.390;10.856;2022-11-15T10:47:50;95519.81;;;22.17
50206;BMP280;36098;48.390;10.856;2022-11-15T10:50:31;95513.22;;;22.20
50206;BMP280;36098;48.390;10.856;2022-11-15T10:52:57;95511.22;;;22.35
50206;BMP280;36098;48.390;10.856;2022-11-15T10:55:27;95509.38;;;22.41
50206;BMP280;36098;48.390;10.856;2022-11-15T10:58:05;95502.00;;;22.38
50206;BMP280;36098;48.390;10.856;2022-11-15T11:00:38;95499.91;;;22.40
50206;BMP280;36098;48.390;10.856;2022-11-15T11:03:27;95499.91;;;22.35
50206;BMP280;36098;48.390;10.856;2022-11-15T11:06:04;95490.25;;;22.25
50206;BMP280;36098;48.390;10.856;2022-11-15T11:08:30;95482.34;;;22.30
50206;BMP280;36098;48.390;10.856;2022-11-15T11:10:59;95476.25;;;22.40
50206;BMP280;36098;48.390;10.856;2022-11-15T11:13:26;95478.00;;;22.44
50206;BMP280;36098;48.390;10.856;2022-11-15T11:19:02;95476.78;;;22.32
50206;BMP280;36098;48.390;10.856;2022-11-15T11:24:10;95466.47;;;22.40
50206;BMP280;36098;48.390;10.856;2022-11-15T11:26:58;95478.38;;;22.33
50206;BMP280;36098;48.390;10.856;2022-11-15T11:29:38;95468.34;;;22.35
50206;BMP280;36098;48.390;10.856;2022-11-15T11:32:30;95456.19;;;22.44
50206;BMP280;36098;48.390;10.856;2022-11-15T11:37:37;95452.03;;;22.38
50206;BMP280;36098;48.390;10.856;2022-11-15T11:40:29;95452.06;;;22.33
50206;BMP280;36098;48.390;10.856;2022-11-15T11:43:10;95448.44;;;22.29
50206;BMP280;36098;48.390;10.856;2022-11-15T11:51:40;95446.78;;;22.38
50206;BMP280;36098;48.390;10.856;2022-11-15T11:54:19;95444.69;;;22.35
50206;BMP280;36098;48.390;10.856;2022-11-15T11:56:45;95436.94;;;22.48
50206;BMP280;36098;48.390;10.856;2022-11-15T12:01:48;95440.94;;;22.69
50206;BMP280;36098;48.390;10.856;2022-11-15T12:04:29;95441.94;;;22.73
50206;BMP280;36098;48.390;10.856;2022-11-15T12:06:59;95435.88;;;22.73
50206;BMP280;36098;48.390;10.856;2022-11-15T12:09:32;95434.22;;;22.77
50206;BMP280;36098;48.390;10.856;2022-11-15T12:12:13;95424.31;;;22.92
50206;BMP280;36098;48.390;10.856;2022-11-15T12:17:25;95426.47;;;23.09
50206;BMP280;36098;48.390;10.856;2022-11-15T12:19:55;95433.38;;;23.05
50206;BMP280;36098;48.390;10.856;2022-11-15T12:22:38;95425.59;;;22.95
50206;BMP280;36098;48.390;10.856;2022-11-15T12:30:13;95414.13;;;23.04
50206;BMP280;36098;48.390;10.856;2022-11-15T12:32:49;95409.34;;;23.11
50206;BMP280;36098;48.390;10.856;2022-11-15T12:35:57;95415.75;;;23.24
50206;BMP280;36098;48.390;10.856;2022-11-15T12:38:54;95423.50;;;23.33
50206;BMP280;36098;48.390;10.856;2022-11-15T12:43:52;95413.44;;;23.35
50206;BMP280;36098;48.390;10.856;2022-11-15T13:02:20;95405.19;;;23.60
50206;BMP280;36098;48.390;10.856;2022-11-15T13:04:47;95410.72;;;23.59
50206;BMP280;36098;48.390;10.856;2022-11-15T13:10:00;95406.81;;;23.56
50206;BMP280;36098;48.390;10.856;2022-11-15T13:14:53;95411.53;;;23.59
50206;BMP280;36098;48.390;10.856;2022-11-15T13:19:47;95404.38;;;23.78
50206;BMP280;36098;48.390;10.856;2022-11-15T13:22:13;95411.56;;;23.73
50206;BMP280;36098;48.390;10.856;2022-11-15T13:24:58;95416.22;;;23.62
50206;BMP280;36098;48.390;10.856;2022-11-15T13:27:25;95407.25;;;23.63
50206;BMP280;36098;48.390;10.856;2022-11-15T13:29:52;95409.66;;;23.60
50206;BMP280;36098;48.390;10.856;2022-11-15T13:32:18;95413.56;;;23.62
50206;BMP280;36098;48.390;10.856;2022-11-15T13:34:45;95410.59;;;23.69
50206;BMP280;36098;48.390;10.856;2022-11-15T13:39:47;95409.88;;;23.63
50206;BMP280;36098;48.390;10.856;2022-11-15T13:42:17;95402.91;;;23.54
50206;BMP280;36098;48.390;10.856;2022-11-15T13:45:03;95400.22;;;23.72
50206;BMP280;36098;48.390;10.856;2022-11-15T13:47:29;95401.78;;;23.73
50206;BMP280;36098;48.390;10.856;2022-11-15T13:49:59;95393.19;;;23.68
50206;BMP280;36098;48.390;10.856;2022-11-15T13:52:32;95398.13;;;23.56
50206;BMP280;36098;48.390;10.856;2022-11-15T13:55:13;95394.78;;;23.69
50206;BMP280;36098;48.390;10.856;2022-11-15T13:57:44;95392.63;;;23.71
50206;BMP280;36098;48.390;10.856;2022-11-15T14:00:36;95396.50;;;23.73
50206;BMP280;36098;48.390;10.856;2022-11-15T14:05:44;95389.19;;;23.70
50206;BMP280;36098;48.390;10.856;2022-11-15T14:08:22;95389.69;;;23.72
50206;BMP280;36098;48.390;10.856;2022-11-15T14:11:09;95385.78;;;23.70
50206;BMP280;36098;48.390;10.856;2022-11-15T14:13:34;95385.47;;;23.71
50206;BMP280;36098;48.390;10.856;2022-11-15T14:16:19;95386.06;;;23.68
50206;BMP280;36098;48.390;10.856;2022-11-15T14:18:47;95388.69;;;23.68
50206;BMP280;36098;48.390;10.856;2022-11-15T14:21:13;95380.97;;;23.58
50206;BMP280;36098;48.390;10.856;2022-11-15T14:23:39;95381.78;;;23.22
50206;BMP280;36098;48.390;10.856;2022-11-15T14:26:05;95383.28;;;23.28
50206;BMP280;36098;48.390;10.856;2022-11-15T14:28:33;95390.91;;;23.29
50206;BMP280;36098;48.390;10.856;2022-11-15T14:31:04;95387.31;;;23.39
50206;BMP280;36098;48.390;10.856;2022-11-15T14:33:38;95379.19;;;23.35
50206;BMP280;36098;48.390;10.856;2022-11-15T14:36:18;95374.72;;;23.36
50206;BMP280;36098;48.390;10.856;2022-11-15T14:38:44;95366.75;;;23.41
50206;BMP280;36098;48.390;10.856;2022-11-15T14:41:23;95363.47;;;23.49
50206;BMP280;36098;48.390;10.856;2022-11-15T14:43:50;95371.69;;;23.61
50206;BMP280;36098;48.390;10.856;2022-11-15T14:46:16;95357.91;;;23.50
50206;BMP280;36098;48.390;10.856;2022-11-15T14:48:41;95356.06;;;23.51
50206;BMP280;36098;48.390;10.856;2022-11-15T14:51:18;95352.34;;;23.52
50206;BMP280;36098;48.390;10.856;2022-11-15T14:53:45;95354.28;;;23.46
50206;BMP280;36098;48.390;10.856;2022-11-15T14:56:11;95347.44;;;23.45
50206;BMP280;36098;48.390;10.856;2022-11-15T14:58:36;95350.34;;;23.44
50206;BMP280;36098;48.390;10.856;2022-11-15T15:01:25;95350.66;;;23.42
50206;BMP280;36098;48.390;10.856;2022-11-15T15:03:52;95352.31;;;23.38
50206;BMP280;36098;48.390;10.856;2022-11-15T15:06:19;95346.53;;;23.36
50206;BMP280;36098;48.390;10.856;2022-11-15T15:08:45;95343.13;;;23.36
50206;BMP280;36098;48.390;10.856;2022-11-15T15:11:14;95343.56;;;23.25
50206;BMP280;36098;48.390;10.856;2022-11-15T15:13:40;95336.25;;;23.22
50206;BMP280;36098;48.390;10.856;2022-11-15T15:16:05;95326.97;;;23.06
50206;BMP280;36098;48.390;10.856;2022-11-15T15:18:31;95325.31;;;23.10
50206;BMP280;36098;48.390;10.856;2022-11-15T15:20:58;95315.81;;;23.14
50206;BMP280;36098;48.390;10.856;2022-11-15T15:23:32;95318.44;;;23.14
50206;BMP280;36098;48.390;10.856;2022-11-15T15:25:58;95308.47;;;22.92
50206;BMP280;36098;48.390;10.856;2022-11-15T15:28:23;95313.31;;;23.04
50206;BMP280;36098;48.390;10.856;2022-11-15T15:30:49;95309.19;;;22.98
50206;BMP280;36098;48.390;10.856;2022-11-15T15:33:17;95313.22;;;23.09
50206;BMP280;36098;48.390;10.856;2022-11-15T15:35:43;95313.41;;;22.99
50206;BMP280;36098;48.390;10.856;2022-11-15T15:38:11;95309.19;;;22.98
50206;BMP280;36098;48.390;10.856;2022-11-15T15:40:37;95307.59;;;22.97
50206;BMP280;36098;48.390;10.856;2022-11-15T15:43:03;95303.13;;;22.97
50206;BMP280;36098;48.390;10.856;2022-11-15T15:45:28;95311.88;;;22.93